createdAt,value
2019-06-20T00:02:05.806Z,18.60
2019-06-20T00:04:34.529Z,18.60
2019-06-20T00:07:03.280Z,18.60
2019-06-20T00:09:32.077Z,18.50
2019-06-20T00:12:00.895Z,18.50
2019-06-20T00:14:29.609Z,18.50
2019-06-20T00:16:59.513Z,18.40
2019-06-20T00:19:28.374Z,18.40
2019-06-20T00:21:57.131Z,18.40
2019-06-20T00:24:25.884Z,18.30
2019-06-20T00:26:54.613Z,18.30
2019-06-20T00:29:23.408Z,18.30
2019-06-20T00:31:52.234Z,18.20
2019-06-20T00:34:20.963Z,18.20
2019-06-20T00:36:51.385Z,18.20
2019-06-20T00:39:20.305Z,18.10
2019-06-20T00:41:49.080Z,18.20
2019-06-20T00:44:17.812Z,18.10
2019-06-20T00:46:46.606Z,18.20
2019-06-20T00:49:15.417Z,18.20
2019-06-20T00:51:44.147Z,18.30
2019-06-20T00:54:12.879Z,18.30
2019-06-20T00:56:41.608Z,18.40
2019-06-20T00:59:10.344Z,18.40
2019-06-20T01:01:39.082Z,18.50
2019-06-20T01:04:08.173Z,18.50
2019-06-20T01:06:36.926Z,18.50
2019-06-20T01:09:08.199Z,18.50
2019-06-20T01:11:36.945Z,18.50
2019-06-20T01:14:06.066Z,18.50
2019-06-20T01:16:34.898Z,18.50
2019-06-20T01:19:03.641Z,18.40
2019-06-20T01:21:32.437Z,18.40
2019-06-20T01:24:01.163Z,18.40
2019-06-20T01:26:29.903Z,18.30
2019-06-20T01:28:58.662Z,18.30
2019-06-20T01:31:27.423Z,18.20
2019-06-20T01:33:56.114Z,18.30
2019-06-20T01:36:24.855Z,18.20
2019-06-20T01:38:53.586Z,18.20
2019-06-20T01:41:23.002Z,18.10
2019-06-20T01:43:51.732Z,18.20
2019-06-20T01:46:20.544Z,18.10
2019-06-20T01:48:49.283Z,18.10
2019-06-20T01:51:18.098Z,18.10
2019-06-20T01:53:46.837Z,18.10
2019-06-20T01:56:15.558Z,18.10
2019-06-20T01:58:44.303Z,18.00
2019-06-20T02:01:13.119Z,18.10
2019-06-20T02:03:41.879Z,18.10
2019-06-20T02:06:10.609Z,18.10
2019-06-20T02:08:39.344Z,18.10
2019-06-20T02:11:08.080Z,18.20
2019-06-20T02:13:36.917Z,18.20
2019-06-20T02:16:05.948Z,18.20
2019-06-20T02:18:34.744Z,18.30
2019-06-20T02:21:03.914Z,18.30
2019-06-20T02:23:32.618Z,18.40
2019-06-20T02:26:01.350Z,18.40
2019-06-20T02:28:30.087Z,18.40
2019-06-20T02:30:58.843Z,18.50
2019-06-20T02:33:27.549Z,18.50
2019-06-20T02:35:56.271Z,18.50
2019-06-20T02:38:25.046Z,18.60
2019-06-20T02:40:53.737Z,18.60
2019-06-20T02:43:23.063Z,18.60
2019-06-20T02:45:51.801Z,18.60
2019-06-20T02:48:20.549Z,18.70
2019-06-20T02:50:49.266Z,18.80
2019-06-20T02:53:18.071Z,18.90
2019-06-20T02:55:46.865Z,19.00
2019-06-20T02:58:15.646Z,19.10
2019-06-20T03:00:56.147Z,19.20
2019-06-20T03:03:25.929Z,19.20
2019-06-20T03:05:54.962Z,19.30
2019-06-20T03:08:24.102Z,19.30
2019-06-20T03:10:52.943Z,19.40
2019-06-20T03:13:21.667Z,19.60
2019-06-20T03:15:50.407Z,19.80
2019-06-20T03:18:19.190Z,20.30
2019-06-20T03:20:47.932Z,20.60
2019-06-20T03:23:16.733Z,20.70
2019-06-20T03:25:45.455Z,20.60
2019-06-20T03:28:14.200Z,20.50
2019-06-20T03:30:42.927Z,20.50
2019-06-20T03:33:11.824Z,20.40
2019-06-20T03:35:40.549Z,20.40
2019-06-20T03:38:09.313Z,20.40
2019-06-20T03:40:38.010Z,20.50
2019-06-20T03:43:06.731Z,20.50
2019-06-20T03:45:35.977Z,20.60
2019-06-20T03:48:04.792Z,20.70
2019-06-20T03:50:33.834Z,20.80
2019-06-20T03:53:02.703Z,20.90
2019-06-20T03:55:34.661Z,21.10
2019-06-20T03:58:04.671Z,21.20
2019-06-20T04:00:35.207Z,21.20
2019-06-20T04:03:05.110Z,21.40
2019-06-20T04:05:34.501Z,21.40
2019-06-20T04:08:03.598Z,21.50
2019-06-20T04:10:32.385Z,21.60
2019-06-20T04:13:01.156Z,21.80
2019-06-20T04:15:29.924Z,21.80
2019-06-20T04:17:58.658Z,22.00
2019-06-20T04:20:27.383Z,22.00
2019-06-20T04:22:56.198Z,22.10
2019-06-20T04:25:24.935Z,22.20
2019-06-20T04:27:53.794Z,22.40
2019-06-20T04:30:22.565Z,22.20
2019-06-20T04:32:51.355Z,22.10
2019-06-20T04:35:20.087Z,22.00
2019-06-20T04:37:48.922Z,22.10
2019-06-20T04:40:17.952Z,22.10
2019-06-20T04:42:46.746Z,22.10
2019-06-20T04:45:34.496Z,22.20
2019-06-20T04:47:53.815Z,22.20
2019-06-20T04:50:22.547Z,22.20
2019-06-20T04:52:51.393Z,22.10
2019-06-20T04:55:20.116Z,22.20
2019-06-20T04:57:48.961Z,22.30
2019-06-20T05:00:18.937Z,22.40
2019-06-20T05:02:47.742Z,22.50
2019-06-20T05:05:16.576Z,22.50
2019-06-20T05:07:45.318Z,22.40
2019-06-20T05:10:14.019Z,22.50
2019-06-20T05:12:42.818Z,22.50
2019-06-20T05:15:12.273Z,22.70
2019-06-20T05:17:41.072Z,22.80
2019-06-20T05:20:10.003Z,23.00
2019-06-20T05:22:38.748Z,23.10
2019-06-20T05:25:07.869Z,23.30
2019-06-20T05:27:36.609Z,23.50
2019-06-20T05:30:10.203Z,23.60
2019-06-20T05:32:39.027Z,23.80
2019-06-20T05:35:08.430Z,23.70
2019-06-20T05:37:37.262Z,23.80
2019-06-20T05:40:07.576Z,23.60
2019-06-20T05:42:36.294Z,23.70
2019-06-20T05:45:08.500Z,23.80
2019-06-20T05:47:37.282Z,23.80
2019-06-20T05:50:09.461Z,23.90
2019-06-20T05:52:38.208Z,24.00
2019-06-20T05:55:09.955Z,24.10
2019-06-20T05:57:38.685Z,24.20
2019-06-20T06:00:11.487Z,24.40
2019-06-20T06:02:40.386Z,24.40
2019-06-20T06:05:09.125Z,24.60
2019-06-20T06:07:37.824Z,24.50
2019-06-20T06:10:07.939Z,24.50
2019-06-20T06:12:36.716Z,24.40
2019-06-20T06:15:09.155Z,24.30
2019-06-20T06:17:38.637Z,24.30
2019-06-20T06:20:08.490Z,24.20
2019-06-20T06:22:37.248Z,24.30
2019-06-20T06:25:07.374Z,24.40
2019-06-20T06:27:36.173Z,24.50
2019-06-20T06:30:09.867Z,24.70
2019-06-20T06:32:40.307Z,24.90
2019-06-20T06:35:09.886Z,25.10
2019-06-20T06:37:38.920Z,25.20
2019-06-20T06:40:09.557Z,25.30
2019-06-20T06:42:38.354Z,25.20
2019-06-20T06:45:09.679Z,25.10
2019-06-20T06:47:38.479Z,25.20
2019-06-20T06:50:08.197Z,25.40
2019-06-20T06:52:37.043Z,25.50
2019-06-20T06:55:06.472Z,25.70
2019-06-20T06:57:36.185Z,25.80
2019-06-20T07:00:10.167Z,26.20
2019-06-20T07:02:38.966Z,26.30
2019-06-20T07:05:08.000Z,26.60
2019-06-20T07:07:36.790Z,26.90
2019-06-20T07:10:06.932Z,26.80
2019-06-20T07:12:35.730Z,26.80
2019-06-20T07:15:07.263Z,26.90
2019-06-20T07:17:36.116Z,27.00
2019-06-20T07:20:06.694Z,27.00
2019-06-20T07:22:36.055Z,27.00
2019-06-20T07:25:07.069Z,27.10
2019-06-20T07:27:34.952Z,27.20
2019-06-20T07:30:05.214Z,27.50
2019-06-20T07:32:33.948Z,27.80
2019-06-20T07:35:02.772Z,28.00
2019-06-20T07:37:31.525Z,28.00
2019-06-20T07:40:00.253Z,28.10
2019-06-20T07:42:28.987Z,28.20
2019-06-20T07:44:57.714Z,28.40
2019-06-20T07:47:26.548Z,28.50
2019-06-20T07:49:55.321Z,28.60
2019-06-20T07:52:24.047Z,28.40
2019-06-20T07:54:52.854Z,28.20
2019-06-20T07:57:21.607Z,28.20
2019-06-20T07:59:50.411Z,28.20
2019-06-20T08:02:19.219Z,28.10
2019-06-20T08:04:47.932Z,28.20
2019-06-20T08:07:16.665Z,28.20
2019-06-20T08:09:45.626Z,28.20
2019-06-20T08:12:14.525Z,28.10
2019-06-20T08:14:43.248Z,28.00
2019-06-20T08:17:12.065Z,28.00
2019-06-20T08:19:40.792Z,28.20
2019-06-20T08:22:09.587Z,28.40
2019-06-20T08:24:38.462Z,28.50
2019-06-20T08:27:07.209Z,28.60
2019-06-20T08:29:35.938Z,28.60
2019-06-20T08:32:06.525Z,28.30
2019-06-20T08:34:35.425Z,28.60
2019-06-20T08:37:04.452Z,28.70
2019-06-20T08:39:33.179Z,28.70
2019-06-20T08:42:02.134Z,28.80
2019-06-20T08:44:30.894Z,28.70
2019-06-20T08:47:01.149Z,28.70
2019-06-20T08:49:30.105Z,28.90
2019-06-20T08:51:59.191Z,29.10
2019-06-20T08:54:28.053Z,29.00
2019-06-20T08:56:57.472Z,28.90
2019-06-20T08:59:27.167Z,29.00
2019-06-20T09:01:58.745Z,29.00
2019-06-20T09:04:26.434Z,29.20
2019-06-20T09:06:56.980Z,29.50
2019-06-20T09:09:25.575Z,29.30
2019-06-20T09:11:55.385Z,29.20
2019-06-20T09:14:24.854Z,29.30
2019-06-20T09:16:54.904Z,29.40
2019-06-20T09:19:23.734Z,29.40
2019-06-20T09:21:53.909Z,29.20
2019-06-20T09:24:22.907Z,29.00
2019-06-20T09:26:52.852Z,29.10
2019-06-20T09:29:22.161Z,29.10
2019-06-20T09:31:52.523Z,29.10
2019-06-20T09:34:21.277Z,29.30
2019-06-20T09:36:51.951Z,29.60
2019-06-20T09:39:20.540Z,29.60
2019-06-20T09:41:51.059Z,29.70
2019-06-20T09:44:19.666Z,29.70
2019-06-20T09:46:50.653Z,29.80
2019-06-20T09:49:18.826Z,29.90
2019-06-20T09:51:48.679Z,30.20
2019-06-20T09:54:18.089Z,30.20
2019-06-20T09:56:48.569Z,30.10
2019-06-20T09:59:27.132Z,30.00
2019-06-20T10:01:48.144Z,30.00
2019-06-20T10:04:21.436Z,30.00
2019-06-20T10:06:48.695Z,30.00
2019-06-20T10:09:17.822Z,29.70
2019-06-20T10:11:47.935Z,29.70
2019-06-20T10:14:16.956Z,29.90
2019-06-20T10:16:50.312Z,30.10
2019-06-20T10:19:16.118Z,30.20
2019-06-20T10:21:46.192Z,29.80
2019-06-20T10:24:15.238Z,29.90
2019-06-20T10:26:44.908Z,30.00
2019-06-20T10:29:14.522Z,30.10
2019-06-20T10:31:44.837Z,30.20
2019-06-20T10:34:13.642Z,30.30
2019-06-20T10:36:44.816Z,30.50
2019-06-20T10:39:13.037Z,30.70
2019-06-20T10:41:41.816Z,30.70
2019-06-20T10:44:10.514Z,30.50
2019-06-20T10:46:39.283Z,30.70
2019-06-20T10:49:08.082Z,30.70
2019-06-20T10:51:38.465Z,30.60
2019-06-20T10:54:07.205Z,30.60
2019-06-20T10:56:36.007Z,30.50
2019-06-20T10:59:05.032Z,30.40
2019-06-20T11:01:33.839Z,30.50
2019-06-20T11:04:02.633Z,30.60
2019-06-20T11:06:31.407Z,30.30
2019-06-20T11:09:00.149Z,30.50
2019-06-20T11:11:29.082Z,30.50
2019-06-20T11:13:57.827Z,30.20
2019-06-20T11:16:26.552Z,30.40
2019-06-20T11:18:55.280Z,30.40
2019-06-20T11:21:24.226Z,30.30
2019-06-20T11:23:52.960Z,30.60
2019-06-20T11:26:21.819Z,30.70
2019-06-20T11:28:50.561Z,30.40
2019-06-20T11:31:19.342Z,30.30
2019-06-20T11:33:48.428Z,30.20
2019-06-20T11:36:17.488Z,30.10
2019-06-20T11:38:46.905Z,30.10
2019-06-20T11:41:15.736Z,30.30
2019-06-20T11:43:44.470Z,30.00
2019-06-20T11:46:13.272Z,30.10
2019-06-20T11:48:43.004Z,30.10
2019-06-20T11:51:11.831Z,30.20
2019-06-20T11:53:40.679Z,30.50
2019-06-20T11:56:09.565Z,30.40
2019-06-20T11:58:38.302Z,30.30
2019-06-20T12:01:07.031Z,30.40
2019-06-20T12:03:35.768Z,30.40
2019-06-20T12:06:04.994Z,30.50
2019-06-20T12:08:33.734Z,30.60
2019-06-20T12:11:02.488Z,30.50
2019-06-20T12:13:31.291Z,30.20
2019-06-20T12:16:00.019Z,30.10
2019-06-20T12:18:28.751Z,30.00
2019-06-20T12:20:57.501Z,30.10
2019-06-20T12:23:26.326Z,29.90
2019-06-20T12:25:55.041Z,30.10
2019-06-20T12:28:23.766Z,30.00
2019-06-20T12:30:52.504Z,30.10
2019-06-20T12:33:21.246Z,30.00
2019-06-20T12:35:49.988Z,29.90
2019-06-20T12:38:18.714Z,30.10
2019-06-20T12:40:47.517Z,30.20
2019-06-20T12:43:16.279Z,30.10
2019-06-20T12:45:45.020Z,30.20
2019-06-20T12:48:13.814Z,30.30
2019-06-20T12:50:43.059Z,30.20
2019-06-20T12:53:11.970Z,30.30
2019-06-20T12:55:40.698Z,30.60
2019-06-20T12:58:09.667Z,30.60
2019-06-20T13:00:39.486Z,30.90
2019-06-20T13:03:09.121Z,30.80
2019-06-20T13:05:38.416Z,30.60
2019-06-20T13:08:08.214Z,30.40
2019-06-20T13:10:38.627Z,30.50
2019-06-20T13:13:07.517Z,30.50
2019-06-20T13:15:36.238Z,30.30
2019-06-20T13:18:05.000Z,29.80
2019-06-20T13:20:33.723Z,29.80
2019-06-20T13:23:02.490Z,29.60
2019-06-20T13:25:31.196Z,29.50
2019-06-20T13:28:00.631Z,29.50
2019-06-20T13:30:29.441Z,29.30
2019-06-20T13:32:58.190Z,29.50
2019-06-20T13:35:26.911Z,29.60
2019-06-20T13:37:55.639Z,29.70
2019-06-20T13:40:24.376Z,29.90
2019-06-20T13:42:54.718Z,30.40
2019-06-20T13:45:26.050Z,30.70
2019-06-20T13:47:55.301Z,31.00
2019-06-20T13:50:25.142Z,30.70
2019-06-20T13:52:54.011Z,30.60
2019-06-20T13:55:23.286Z,30.40
2019-06-20T13:57:52.026Z,30.20
2019-06-20T14:00:23.387Z,30.50
2019-06-20T14:02:52.086Z,30.50
2019-06-20T14:05:21.315Z,30.40
2019-06-20T14:07:53.500Z,30.10
2019-06-20T14:10:21.055Z,29.90
2019-06-20T14:12:49.767Z,29.70
2019-06-20T14:15:18.819Z,29.70
2019-06-20T14:17:49.466Z,29.60
2019-06-20T14:20:18.566Z,29.50
2019-06-20T14:22:47.300Z,29.50
2019-06-20T14:25:16.414Z,29.20
2019-06-20T14:27:46.048Z,29.10
2019-06-20T14:30:15.355Z,28.90
2019-06-20T14:32:44.079Z,28.60
2019-06-20T14:35:13.285Z,28.40
2019-06-20T14:37:43.773Z,28.30
2019-06-20T14:40:12.975Z,28.40
2019-06-20T14:42:42.777Z,28.30
2019-06-20T14:45:12.566Z,28.30
2019-06-20T14:47:41.373Z,28.20
2019-06-20T14:50:10.814Z,28.10
2019-06-20T14:52:39.845Z,28.10
2019-06-20T14:55:09.254Z,28.20
2019-06-20T14:57:37.980Z,28.10
2019-06-20T15:00:12.182Z,28.20
2019-06-20T15:02:40.963Z,28.30
2019-06-20T15:05:15.395Z,28.30
2019-06-20T15:07:45.685Z,28.40
2019-06-20T15:10:16.187Z,28.40
2019-06-20T15:12:47.453Z,28.60
2019-06-20T15:15:16.680Z,28.60
2019-06-20T15:17:47.529Z,28.40
2019-06-20T15:20:16.242Z,28.40
2019-06-20T15:22:46.769Z,28.40
2019-06-20T15:25:15.659Z,28.30
2019-06-20T15:27:47.214Z,28.20
2019-06-20T15:30:15.171Z,27.90
2019-06-20T15:32:55.601Z,27.80
2019-06-20T15:35:14.287Z,27.70
2019-06-20T15:37:43.024Z,27.70
2019-06-20T15:40:11.984Z,27.70
2019-06-20T15:42:40.731Z,27.60
2019-06-20T15:45:10.064Z,27.50
2019-06-20T15:47:39.080Z,27.30
2019-06-20T15:50:09.373Z,27.30
2019-06-20T15:52:38.200Z,27.20
2019-06-20T15:55:07.405Z,27.20
2019-06-20T15:57:36.232Z,27.10
2019-06-20T16:00:10.419Z,27.10
2019-06-20T16:02:39.222Z,27.00
2019-06-20T16:05:08.952Z,27.10
2019-06-20T16:07:37.746Z,27.10
2019-06-20T16:10:09.032Z,27.00
2019-06-20T16:12:37.967Z,27.00
2019-06-20T16:15:08.876Z,27.00
2019-06-20T16:17:37.599Z,27.00
2019-06-20T16:20:07.071Z,27.00
2019-06-20T16:22:35.887Z,27.00
2019-06-20T16:25:05.523Z,27.00
2019-06-20T16:27:34.314Z,27.00
2019-06-20T16:30:03.468Z,26.90
2019-06-20T16:32:32.260Z,26.90
2019-06-20T16:35:01.008Z,26.90
2019-06-20T16:37:29.739Z,26.90
2019-06-20T16:39:58.495Z,26.90
2019-06-20T16:42:27.291Z,26.90
2019-06-20T16:44:56.043Z,26.80
2019-06-20T16:47:24.832Z,26.80
2019-06-20T16:49:53.589Z,26.70
2019-06-20T16:52:22.339Z,26.70
2019-06-20T16:54:51.127Z,26.80
2019-06-20T16:57:19.995Z,26.70
2019-06-20T16:59:48.705Z,26.60
2019-06-20T17:02:17.512Z,26.60
2019-06-20T17:04:46.323Z,26.30
2019-06-20T17:07:15.144Z,25.90
2019-06-20T17:09:43.973Z,25.40
2019-06-20T17:12:14.848Z,25.00
2019-06-20T17:14:43.710Z,24.40
2019-06-20T17:17:12.415Z,23.10
2019-06-20T17:19:42.173Z,21.50
2019-06-20T17:22:11.170Z,20.80
2019-06-20T17:24:39.913Z,20.30
2019-06-20T17:27:08.648Z,20.00
2019-06-20T17:29:37.447Z,20.00
2019-06-20T17:32:06.277Z,20.00
2019-06-20T17:34:35.051Z,19.90
2019-06-20T17:37:03.806Z,19.90
2019-06-20T17:39:32.619Z,19.90
2019-06-20T17:42:01.346Z,19.90
2019-06-20T17:44:30.155Z,19.90
2019-06-20T17:46:59.001Z,19.90
2019-06-20T17:49:27.733Z,19.90
2019-06-20T17:51:56.470Z,19.90
2019-06-20T17:54:25.205Z,19.90
2019-06-20T17:56:53.968Z,19.90
2019-06-20T17:59:22.969Z,20.00
2019-06-20T18:01:51.901Z,20.00
2019-06-20T18:04:20.656Z,20.00
2019-06-20T18:06:49.424Z,20.00
2019-06-20T18:09:18.263Z,20.00
2019-06-20T18:11:47.067Z,20.00
2019-06-20T18:14:15.815Z,20.10
2019-06-20T18:16:44.555Z,20.00
2019-06-20T18:19:13.294Z,20.00
2019-06-20T18:21:42.023Z,20.00
2019-06-20T18:24:10.777Z,19.90
2019-06-20T18:26:39.679Z,19.80
2019-06-20T18:29:27.674Z,19.80
2019-06-20T18:31:56.408Z,19.90
2019-06-20T18:34:30.037Z,19.80
2019-06-20T18:36:55.704Z,19.90
2019-06-20T18:39:24.439Z,19.90
2019-06-20T18:41:53.187Z,19.90
2019-06-20T18:44:21.987Z,19.90
2019-06-20T18:46:50.767Z,19.90
2019-06-20T18:49:19.468Z,19.90
2019-06-20T18:51:48.277Z,19.90
2019-06-20T18:54:17.045Z,19.80
2019-06-20T18:56:45.821Z,19.80
2019-06-20T18:59:14.546Z,19.80
2019-06-20T19:01:43.347Z,19.80
2019-06-20T19:04:12.082Z,19.70
2019-06-20T19:06:40.815Z,19.70
2019-06-20T19:09:09.962Z,19.70
2019-06-20T19:11:38.769Z,19.70
2019-06-20T19:14:07.610Z,19.70
2019-06-20T19:16:36.365Z,19.80
2019-06-20T19:19:05.275Z,19.70
2019-06-20T19:21:34.022Z,19.70
2019-06-20T19:24:02.846Z,19.70
2019-06-20T19:26:31.583Z,19.60
2019-06-20T19:29:00.716Z,19.70
2019-06-20T19:31:29.474Z,19.70
2019-06-20T19:33:58.307Z,19.70
2019-06-20T19:36:27.038Z,19.70
2019-06-20T19:38:55.798Z,19.70
2019-06-20T19:41:24.539Z,19.70
2019-06-20T19:43:53.287Z,19.70
2019-06-20T19:46:22.039Z,19.70
2019-06-20T19:48:50.772Z,19.60
2019-06-20T19:51:19.575Z,19.60
2019-06-20T19:53:48.313Z,19.70
2019-06-20T19:56:17.073Z,19.70
2019-06-20T19:58:45.845Z,19.70
2019-06-20T20:01:14.589Z,19.60
2019-06-20T20:03:43.384Z,19.60
2019-06-20T20:06:12.323Z,19.60
2019-06-20T20:08:41.163Z,19.60
2019-06-20T20:11:09.905Z,19.60
2019-06-20T20:13:38.637Z,19.60
2019-06-20T20:16:07.385Z,19.60
2019-06-20T20:18:36.121Z,19.60
2019-06-20T20:21:04.863Z,19.60
2019-06-20T20:23:33.665Z,19.50
2019-06-20T20:26:02.449Z,19.40
2019-06-20T20:28:31.179Z,19.40
2019-06-20T20:30:59.928Z,19.40
2019-06-20T20:33:28.805Z,19.40
2019-06-20T20:35:57.655Z,19.40
2019-06-20T20:38:26.474Z,19.40
2019-06-20T20:40:55.219Z,19.40
2019-06-20T20:43:23.963Z,19.30
2019-06-20T20:45:52.704Z,19.30
2019-06-20T20:48:21.505Z,19.30
2019-06-20T20:50:50.360Z,19.30
2019-06-20T20:53:19.138Z,19.30
2019-06-20T20:55:47.875Z,19.30
2019-06-20T20:58:16.607Z,19.30
2019-06-20T21:01:03.664Z,19.20
2019-06-20T21:03:32.412Z,19.30
2019-06-20T21:06:01.139Z,19.30
2019-06-20T21:08:32.758Z,19.20
2019-06-20T21:11:00.267Z,19.20
2019-06-20T21:13:29.091Z,19.20
2019-06-20T21:15:57.863Z,19.20
2019-06-20T21:18:26.590Z,19.10
2019-06-20T21:20:55.421Z,19.10
2019-06-20T21:23:24.260Z,19.10
2019-06-20T21:25:53.025Z,19.10
2019-06-20T21:28:21.766Z,19.10
2019-06-20T21:30:50.540Z,19.10
2019-06-20T21:33:19.285Z,19.10
2019-06-20T21:35:48.063Z,19.10
2019-06-20T21:38:16.805Z,19.10
2019-06-20T21:40:45.748Z,19.10
2019-06-20T21:43:14.484Z,19.10
2019-06-20T21:45:43.218Z,19.10
2019-06-20T21:48:11.956Z,19.00
2019-06-20T21:50:41.891Z,19.00
2019-06-20T21:53:10.645Z,19.00
2019-06-20T21:55:39.375Z,19.00
2019-06-20T21:58:08.121Z,18.90
2019-06-20T22:00:41.438Z,18.90
2019-06-20T22:03:10.842Z,18.90
2019-06-20T22:05:40.165Z,18.80
2019-06-20T22:08:09.102Z,18.80
2019-06-20T22:10:37.838Z,18.80
2019-06-20T22:13:06.624Z,18.70
2019-06-20T22:15:35.402Z,18.70
2019-06-20T22:18:04.393Z,18.70
2019-06-20T22:20:33.108Z,18.70
2019-06-20T22:23:01.883Z,18.70
2019-06-20T22:25:30.589Z,18.60
2019-06-20T22:27:59.389Z,18.60
2019-06-20T22:30:49.273Z,18.60
2019-06-20T22:33:18.014Z,18.60
2019-06-20T22:35:46.760Z,18.60
2019-06-20T22:38:15.520Z,18.60
2019-06-20T22:40:44.554Z,18.60
2019-06-20T22:43:13.664Z,18.70
2019-06-20T22:45:42.396Z,18.70
2019-06-20T22:48:11.259Z,18.60
2019-06-20T22:50:40.029Z,18.60
2019-06-20T22:53:08.759Z,18.60
2019-06-20T22:55:37.500Z,18.50
2019-06-20T22:58:06.946Z,18.50
2019-06-20T23:00:35.686Z,18.60
2019-06-20T23:03:05.407Z,18.60
2019-06-20T23:05:34.440Z,18.60
2019-06-20T23:08:03.339Z,18.60
2019-06-20T23:10:32.578Z,18.50
2019-06-20T23:13:01.341Z,18.60
2019-06-20T23:15:30.062Z,18.50
2019-06-20T23:17:58.800Z,18.40
2019-06-20T23:20:27.535Z,18.40
2019-06-20T23:22:56.290Z,18.40
2019-06-20T23:25:25.014Z,18.30
2019-06-20T23:27:53.826Z,18.30
2019-06-20T23:30:22.963Z,18.30
2019-06-20T23:32:51.776Z,18.30
2019-06-20T23:35:20.517Z,18.30
2019-06-20T23:37:49.246Z,18.30
2019-06-20T23:40:18.490Z,18.30
2019-06-20T23:42:47.318Z,18.20
2019-06-20T23:45:17.516Z,18.20
2019-06-20T23:47:46.399Z,18.10
2019-06-20T23:50:19.211Z,18.10
2019-06-20T23:52:53.839Z,18.10
2019-06-20T23:55:22.571Z,18.10
2019-06-20T23:57:51.330Z,18.10
